Time,TemperatureF,DewpointF,PressureIn,WindDirection,WindDirectionDegrees,WindSpeedMPH,WindSpeedGustMPH,Humidity,HourlyPrecipIn,Conditions,Clouds,dailyrainin,SoftwareType,DateUTC
2013-02-07 07:02:00,33.1,30.8,30.06,SE,131,10.0,10.0,91,0.00,,,0.01,Wunderground v.1.15,2013-02-07 13:02:00,
2013-02-07 07:04:00,33.2,30.9,30.07,SE,133,9.0,10.0,91,0.00,,,0.01,Wunderground v.1.15,2013-02-07 13:04:00,
2013-02-07 07:09:00,33.3,31.0,30.06,SE,131,8.0,10.0,91,0.00,,,0.01,Wunderground v.1.15,2013-02-07 13:09:00,
2013-02-07 07:14:00,33.3,31.0,30.06,SE,128,9.0,12.0,91,0.00,,,0.01,Wunderground v.1.15,2013-02-07 13:14:00,
2013-02-07 07:19:00,33.3,31.0,30.05,SE,132,10.0,14.0,91,0.00,,,0.01,Wunderground v.1.15,2013-02-07 13:19:00,
2013-02-07 07:25:00,33.5,30.9,30.05,SE,126,10.0,14.0,90,0.00,,,0.01,Wunderground v.1.15,2013-02-07 13:25:00,
2013-02-07 07:30:00,33.6,31.0,30.06,SE,139,9.0,10.0,90,0.00,,,0.01,Wunderground v.1.15,2013-02-07 13:30:00,
2013-02-07 07:36:00,33.6,31.0,30.06,SE,132,8.0,10.0,90,0.00,,,0.01,Wunderground v.1.15,2013-02-07 13:36:00,
2013-02-07 07:41:00,33.5,30.9,30.06,SE,138,7.0,8.0,90,0.00,,,0.01,Wunderground v.1.15,2013-02-07 13:41:00,
2013-02-07 07:47:00,33.6,31.0,30.05,SE,142,7.0,10.0,90,0.00,,,0.01,Wunderground v.1.15,2013-02-07 13:47:00,
2013-02-07 07:54:00,33.6,31.0,30.05,SE,143,9.0,10.0,90,0.00,,,0.01,Wunderground v.1.15,2013-02-07 13:54:00,
2013-02-07 07:59:00,33.6,31.3,30.04,SE,132,10.0,10.0,91,0.00,,,0.01,Wunderground v.1.15,2013-02-07 13:59:00,
2013-02-07 08:04:00,33.7,31.4,30.05,SE,128,10.0,10.0,91,0.00,,,0.01,Wunderground v.1.15,2013-02-07 14:04:00,
2013-02-07 08:10:00,33.7,31.4,30.05,SE,140,9.0,9.0,91,0.00,,,0.01,Wunderground v.1.15,2013-02-07 14:10:00,
2013-02-07 08:15:00,33.7,31.4,30.05,SSE,150,8.0,9.0,91,0.00,,,0.01,Wunderground v.1.15,2013-02-07 14:15:00,
2013-02-07 08:21:00,33.7,31.4,30.05,SE,142,8.0,10.0,91,0.00,,,0.01,Wunderground v.1.15,2013-02-07 14:21:00,
2013-02-07 08:26:00,33.7,31.4,30.05,SE,138,7.0,10.0,91,0.00,,,0.01,Wunderground v.1.15,2013-02-07 14:26:00,
2013-02-07 08:32:00,33.6,31.3,30.05,SE,131,7.0,8.0,91,0.00,,,0.01,Wunderground v.1.15,2013-02-07 14:32:00,
2013-02-07 08:37:00,33.6,31.3,30.05,SE,130,7.0,8.0,91,0.00,,,0.01,Wunderground v.1.15,2013-02-07 14:37:00,
2013-02-07 08:43:00,33.7,31.4,30.04,ESE,113,6.0,7.0,91,0.00,,,0.01,Wunderground v.1.15,2013-02-07 14:43:00,
2013-02-07 08:49:00,33.7,31.4,30.04,SE,132,6.0,8.0,91,0.00,,,0.01,Wunderground v.1.15,2013-02-07 14:49:00,
2013-02-07 08:54:00,33.8,31.5,30.04,SE,128,6.0,7.0,91,0.00,,,0.01,Wunderground v.1.15,2013-02-07 14:54:00,
2013-02-07 08:59:00,33.9,31.6,30.04,SE,126,7.0,9.0,91,0.00,,,0.01,Wunderground v.1.15,2013-02-07 14:59:00,
2013-02-07 09:04:00,33.9,31.6,30.03,ESE,123,8.0,9.0,91,0.00,,,0.01,Wunderground v.1.15,2013-02-07 15:04:00,
2013-02-07 09:10:00,34.0,31.4,30.03,SE,127,9.0,9.0,90,0.00,,,0.01,Wunderground v.1.15,2013-02-07 15:10:00,
2013-02-07 09:15:00,34.1,31.7,30.03,SE,132,9.0,10.0,91,0.00,,,0.01,Wunderground v.1.15,2013-02-07 15:15:00,
2013-02-07 09:20:00,34.1,31.7,30.03,SE,132,9.0,9.0,91,0.00,,,0.01,Wunderground v.1.15,2013-02-07 15:20:00,
2013-02-07 09:26:00,34.3,31.9,30.02,SE,136,9.0,11.0,91,0.00,,,0.01,Wunderground v.1.15,2013-02-07 15:26:00,
2013-02-07 09:31:00,34.4,32.0,30.02,SE,125,9.0,10.0,91,0.00,,,0.01,Wunderground v.1.15,2013-02-07 15:31:00,
2013-02-07 09:37:00,34.6,32.0,30.02,SE,133,9.0,10.0,90,0.00,,,0.01,Wunderground v.1.15,2013-02-07 15:37:00,
2013-02-07 09:42:00,34.6,32.2,30.02,SE,132,9.0,10.0,91,0.00,,,0.01,Wunderground v.1.15,2013-02-07 15:42:00,
2013-02-07 09:47:00,34.6,32.2,30.02,SE,137,8.0,10.0,91,0.00,,,0.01,Wunderground v.1.15,2013-02-07 15:47:00,
2013-02-07 09:54:00,34.6,32.0,30.02,ESE,121,7.0,10.0,90,0.00,,,0.01,Wunderground v.1.15,2013-02-07 15:54:00,
2013-02-07 09:59:00,34.6,32.0,30.02,SE,140,7.0,10.0,90,0.00,,,0.01,Wunderground v.1.15,2013-02-07 15:59:00,
2013-02-07 10:05:00,34.6,32.0,30.02,SE,138,6.0,7.0,90,0.00,,,0.01,Wunderground v.1.15,2013-02-07 16:05:00,
2013-02-07 10:10:00,34.7,32.1,30.01,SE,140,6.0,6.0,90,0.00,,,0.01,Wunderground v.1.15,2013-02-07 16:10:00,
2013-02-07 10:16:00,34.7,32.1,30.01,SE,140,6.0,8.0,90,0.00,,,0.02,Wunderground v.1.15,2013-02-07 16:16:00,
2013-02-07 10:21:00,34.6,32.0,30.01,SE,144,6.0,6.0,90,0.00,,,0.02,Wunderground v.1.15,2013-02-07 16:21:00,
2013-02-07 10:27:00,34.7,32.3,30.01,SE,142,5.0,6.0,91,0.00,,,0.02,Wunderground v.1.15,2013-02-07 16:27:00,
2013-02-07 10:32:00,34.8,32.4,30.01,SE,134,5.0,6.0,91,0.00,,,0.02,Wunderground v.1.15,2013-02-07 16:32:00,
2013-02-07 10:37:00,34.9,32.3,30.01,SE,142,5.0,6.0,90,0.00,,,0.02,Wunderground v.1.15,2013-02-07 16:37:00,
2013-02-07 10:43:00,35.1,32.5,30.01,SE,127,5.0,6.0,90,0.00,,,0.02,Wunderground v.1.15,2013-02-07 16:43:00,
2013-02-07 10:49:00,35.2,32.6,30.00,SE,130,5.0,6.0,90,0.00,,,0.02,Wunderground v.1.15,2013-02-07 16:49:00,
2013-02-07 10:54:00,35.3,32.7,30.01,SE,131,5.0,6.0,90,0.00,,,0.02,Wunderground v.1.15,2013-02-07 16:54:00,
2013-02-07 11:00:00,35.4,32.8,30.00,ESE,119,5.0,5.0,90,0.00,,,0.02,Wunderground v.1.15,2013-02-07 17:00:00,
2013-02-07 11:06:00,35.5,32.9,30.00,ESE,116,6.0,7.0,90,0.00,,,0.02,Wunderground v.1.15,2013-02-07 17:06:00,
2013-02-07 11:12:00,35.5,32.9,30.00,ESE,115,5.0,5.0,90,0.00,,,0.02,Wunderground v.1.15,2013-02-07 17:12:00,
2013-02-07 11:17:00,35.6,33.0,29.99,ESE,112,4.0,5.0,90,0.00,,,0.02,Wunderground v.1.15,2013-02-07 17:17:00,
2013-02-07 11:23:00,35.7,33.3,29.99,ESE,108,4.0,4.0,91,0.00,,,0.02,Wunderground v.1.15,2013-02-07 17:23:00,
2013-02-07 11:28:00,35.8,33.4,29.99,ESE,108,3.0,4.0,91,0.00,,,0.02,Wunderground v.1.15,2013-02-07 17:28:00,
2013-02-07 11:34:00,35.9,33.5,29.98,East,101,3.0,3.0,91,0.00,,,0.02,Wunderground v.1.15,2013-02-07 17:34:00,
2013-02-07 11:40:00,36.0,33.6,29.98,ESE,107,3.0,3.0,91,0.00,,,0.02,Wunderground v.1.15,2013-02-07 17:40:00,
2013-02-07 11:45:00,36.2,33.8,29.97,ESE,105,3.0,3.0,91,0.00,,,0.02,Wunderground v.1.15,2013-02-07 17:45:00,
2013-02-07 11:50:00,36.4,34.0,29.97,ESE,105,2.0,2.0,91,0.00,,,0.02,Wunderground v.1.15,2013-02-07 17:50:00,
2013-02-07 11:56:00,36.7,34.6,29.97,ESE,106,2.0,3.0,92,0.00,,,0.02,Wunderground v.1.15,2013-02-07 17:56:00,
2013-02-07 12:01:00,37.1,34.7,29.96,ESE,112,2.0,4.0,91,0.00,,,0.02,Wunderground v.1.15,2013-02-07 18:01:00,
2013-02-07 12:07:00,37.5,34.8,29.96,ESE,113,2.0,4.0,90,0.00,,,0.02,Wunderground v.1.15,2013-02-07 18:07:00,
2013-02-07 12:12:00,37.8,35.1,29.96,ESE,113,2.0,2.0,90,0.00,,,0.02,Wunderground v.1.15,2013-02-07 18:12:00,
2013-02-07 12:17:00,38.1,35.4,29.95,ESE,117,2.0,3.0,90,0.00,,,0.02,Wunderground v.1.15,2013-02-07 18:17:00,
2013-02-07 12:24:00,38.3,35.6,29.94,ESE,109,3.0,4.0,90,0.00,,,0.02,Wunderground v.1.15,2013-02-07 18:24:00,
2013-02-07 12:29:00,38.4,35.7,29.94,ESE,109,2.0,4.0,90,0.00,,,0.02,Wunderground v.1.15,2013-02-07 18:29:00,
2013-02-07 12:34:00,38.4,35.7,29.94,ESE,109,1.0,2.0,90,0.00,,,0.02,Wunderground v.1.15,2013-02-07 18:34:00,
2013-02-07 12:39:00,38.5,35.8,29.93,East,87,1.0,2.0,90,0.00,,,0.02,Wunderground v.1.15,2013-02-07 18:39:00,
2013-02-07 12:45:00,38.8,36.4,29.93,East,80,2.0,3.0,91,0.00,,,0.02,Wunderground v.1.15,2013-02-07 18:45:00,
2013-02-07 12:51:00,39.1,36.7,29.93,East,80,2.0,2.0,91,0.00,,,0.02,Wunderground v.1.15,2013-02-07 18:51:00,
2013-02-07 12:56:00,39.3,36.9,29.92,East,80,2.0,2.0,91,0.00,,,0.02,Wunderground v.1.15,2013-02-07 18:56:00,
2013-02-07 13:02:00,39.5,37.1,29.92,East,80,2.0,2.0,91,0.00,,,0.02,Wunderground v.1.15,2013-02-07 19:02:00,
2013-02-07 13:08:00,39.8,37.4,29.92,East,80,1.0,3.0,91,0.00,,,0.02,Wunderground v.1.15,2013-02-07 19:08:00,
2013-02-07 13:14:00,40.0,37.6,29.91,NE,56,2.0,3.0,91,0.00,,,0.02,Wunderground v.1.15,2013-02-07 19:14:00,
2013-02-07 13:19:00,40.2,37.8,29.91,NE,56,1.0,3.0,91,0.00,,,0.02,Wunderground v.1.15,2013-02-07 19:19:00,
2013-02-07 13:24:00,40.3,37.9,29.90,ENE,63,2.0,3.0,91,0.00,,,0.03,Wunderground v.1.15,2013-02-07 19:24:00,
2013-02-07 13:30:00,40.5,38.1,29.90,ESE,107,3.0,3.0,91,0.00,,,0.03,Wunderground v.1.15,2013-02-07 19:30:00,
2013-02-07 13:35:00,40.7,38.3,29.90,ESE,108,2.0,3.0,91,0.00,,,0.03,Wunderground v.1.15,2013-02-07 19:35:00,
2013-02-07 13:41:00,41.0,38.3,29.90,SE,135,2.0,4.0,90,0.00,,,0.03,Wunderground v.1.15,2013-02-07 19:41:00,
2013-02-07 13:47:00,41.2,38.2,29.90,SE,138,3.0,4.0,89,0.00,,,0.04,Wunderground v.1.15,2013-02-07 19:47:00,
2013-02-07 13:52:00,41.1,38.1,29.89,SE,139,4.0,4.0,89,0.10,,,0.05,Wunderground v.1.15,2013-02-07 19:52:00,
2013-02-07 13:58:00,41.0,38.0,29.90,SSE,156,4.0,5.0,89,0.09,,,0.05,Wunderground v.1.15,2013-02-07 19:58:00,
2013-02-07 14:04:00,40.9,37.9,29.89,SSE,152,4.0,6.0,89,0.08,,,0.06,Wunderground v.1.15,2013-02-07 20:04:00,
2013-02-07 14:10:00,40.7,38.0,29.88,SE,136,4.0,4.0,90,0.09,,,0.07,Wunderground v.1.15,2013-02-07 20:10:00,
2013-02-07 14:15:00,40.5,37.8,29.89,SE,136,3.0,4.0,90,0.09,,,0.08,Wunderground v.1.15,2013-02-07 20:15:00,
2013-02-07 14:21:00,40.1,37.7,29.89,South,188,3.0,3.0,91,0.14,,,0.09,Wunderground v.1.15,2013-02-07 20:21:00,
2013-02-07 14:27:00,40.0,37.6,29.88,South,171,2.0,3.0,91,0.16,,,0.11,Wunderground v.1.15,2013-02-07 20:27:00,
2013-02-07 14:33:00,39.8,37.7,29.88,South,171,1.0,2.0,92,0.10,,,0.12,Wunderground v.1.15,2013-02-07 20:33:00,
2013-02-07 14:38:00,39.7,37.6,29.88,South,169,2.0,3.0,92,0.11,,,0.13,Wunderground v.1.15,2013-02-07 20:38:00,
2013-02-07 14:44:00,39.5,37.4,29.88,South,169,2.0,2.0,92,0.09,,,0.13,Wunderground v.1.15,2013-02-07 20:44:00,
2013-02-07 14:50:00,39.4,37.5,29.87,SE,138,2.0,3.0,93,0.16,,,0.15,Wunderground v.1.15,2013-02-07 20:50:00,
2013-02-07 14:55:00,39.3,37.4,29.87,SE,138,2.0,3.0,93,0.09,,,0.15,Wunderground v.1.15,2013-02-07 20:55:00,
2013-02-07 15:01:00,39.0,37.1,29.86,SE,138,3.0,3.0,93,0.09,,,0.16,Wunderground v.1.15,2013-02-07 21:01:00,
2013-02-07 15:07:00,38.9,37.0,29.87,SSE,165,3.0,4.0,93,0.09,,,0.17,Wunderground v.1.15,2013-02-07 21:07:00,
2013-02-07 15:12:00,39.0,37.4,29.87,SSE,164,3.0,3.0,94,0.07,,,0.18,Wunderground v.1.15,2013-02-07 21:12:00,
2013-02-07 15:18:00,39.1,37.5,29.87,South,184,2.0,3.0,94,0.11,,,0.19,Wunderground v.1.15,2013-02-07 21:18:00,
2013-02-07 15:24:00,39.0,37.4,29.86,South,184,2.0,2.0,94,0.12,,,0.20,Wunderground v.1.15,2013-02-07 21:24:00,
2013-02-07 15:29:00,39.1,37.5,29.87,South,184,1.0,2.0,94,0.10,,,0.21,Wunderground v.1.15,2013-02-07 21:29:00,
2013-02-07 15:35:00,39.0,37.4,29.86,South,184,0.0,1.0,94,0.12,,,0.22,Wunderground v.1.15,2013-02-07 21:35:00,
2013-02-07 15:41:00,38.9,37.3,29.86,South,184,0.0,0.0,94,0.11,,,0.23,Wunderground v.1.15,2013-02-07 21:41:00,
2013-02-07 15:46:00,38.9,37.3,29.86,South,184,0.0,0.0,94,0.11,,,0.24,Wunderground v.1.15,2013-02-07 21:46:00,
2013-02-07 15:52:00,38.9,37.3,29.85,South,184,0.0,0.0,94,0.08,,,0.25,Wunderground v.1.15,2013-02-07 21:52:00,
2013-02-07 15:57:00,38.9,37.3,29.85,South,184,0.0,0.0,94,0.08,,,0.26,Wunderground v.1.15,2013-02-07 21:57:00,
2013-02-07 16:02:00,38.9,37.3,29.85,South,184,0.0,0.0,94,0.08,,,0.26,Wunderground v.1.15,2013-02-07 22:02:00,
2013-02-07 16:09:00,38.8,37.2,29.85,South,184,0.0,0.0,94,0.10,,,0.28,Wunderground v.1.15,2013-02-07 22:09:00,
2013-02-07 16:14:00,38.6,37.0,29.85,South,184,0.0,0.0,94,0.10,,,0.28,Wunderground v.1.15,2013-02-07 22:14:00,
2013-02-07 16:19:00,38.3,36.7,29.85,South,184,0.0,0.0,94,0.08,,,0.29,Wunderground v.1.15,2013-02-07 22:19:00,
2013-02-07 16:25:00,38.0,36.4,29.86,South,184,0.0,0.0,94,0.09,,,0.30,Wunderground v.1.15,2013-02-07 22:25:00,
2013-02-07 16:31:00,38.2,36.9,29.85,South,184,0.0,0.0,95,0.10,,,0.31,Wunderground v.1.15,2013-02-07 22:31:00,
2013-02-07 16:36:00,38.2,36.9,29.86,South,184,0.0,0.0,95,0.08,,,0.31,Wunderground v.1.15,2013-02-07 22:36:00,